Time;durP1;ratioP1;P1;durP2;ratioP2;P2;SDS_P1;SDS_P2;PMS_P1;PMS_P2;Temp;Humidity;BMP_temperature;BMP_pressure;BME280_temperature;BME280_humidity;BME280_pressure;Samples;Min_cycle;Max_cycle;Signal;HPM_P1;HPM_P2
2024/01/10 00:01:59;;;;;;;112.50;34.40;;;;;;;-11.33;41.29;100692.58;135973;1276;22558;-59
2024/01/10 00:05:02;;;;;;;119.60;34.90;;;;;;;-11.57;41.58;100700.48;135923;1275;22536;-59
2024/01/10 00:08:06;;;;;;;109.10;33.30;;;;;;;-11.80;42.16;100701.00;135907;1276;22648;-60
2024/01/10 00:11:08;;;;;;;131.30;38.70;;;;;;;-11.80;41.72;100705.73;135882;1275;22540;-59
2024/01/10 00:14:11;;;;;;;119.40;34.90;;;;;;;-11.70;42.16;100699.91;135875;1276;25408;-59
2024/01/10 00:17:14;;;;;;;123.70;35.20;;;;;;;-11.56;41.75;100699.20;135867;1275;22544;-59
2024/01/10 00:20:16;;;;;;;118.80;36.10;;;;;;;-11.68;41.69;100705.41;135879;1276;22550;-59
2024/01/10 00:23:19;;;;;;;125.30;37.00;;;;;;;-11.60;42.22;100708.58;135912;1276;25374;-59
2024/01/10 00:26:22;;;;;;;122.20;34.80;;;;;;;-11.39;41.65;100702.52;135938;1275;22558;-59
2024/01/10 00:29:24;;;;;;;110.80;35.40;;;;;;;-11.24;41.57;100703.18;135897;1275;22650;-59
2024/01/10 00:32:27;;;;;;;120.10;37.10;;;;;;;-11.14;41.44;100699.02;135891;1275;22544;-58
2024/01/10 00:35:30;;;;;;;110.10;34.60;;;;;;;-11.21;41.27;100692.23;135963;1276;22530;-59
2024/01/10 00:38:32;;;;;;;117.30;35.40;;;;;;;-11.13;41.71;100690.80;135908;1275;22551;-59
2024/01/10 00:41:35;;;;;;;110.00;33.40;;;;;;;-10.95;41.88;100687.92;135891;1276;22719;-60
2024/01/10 00:44:39;;;;;;;120.20;37.60;;;;;;;-10.86;41.19;100686.56;135887;1276;22553;-59
2024/01/10 00:47:41;;;;;;;129.90;38.10;;;;;;;-10.99;41.02;100693.08;135892;1276;22547;-60
2024/01/10 00:50:45;;;;;;;141.20;40.20;;;;;;;-10.99;41.21;100692.74;135912;1276;22581;-59
2024/01/10 00:53:47;;;;;;;140.40;39.70;;;;;;;-10.98;41.12;100692.83;135911;1276;22550;-59
2024/01/10 00:56:50;;;;;;;136.80;40.40;;;;;;;-10.77;41.27;100688.54;135890;1276;22554;-59
2024/01/10 00:59:53;;;;;;;114.50;37.90;;;;;;;-10.68;40.74;100685.32;135897;1275;22531;-59
2024/01/10 01:02:56;;;;;;;119.70;36.00;;;;;;;-10.87;40.64;100683.10;135949;1275;22635;-61
2024/01/10 01:05:59;;;;;;;117.60;34.20;;;;;;;-11.02;40.85;100676.91;135901;1276;25396;-59
2024/01/10 01:09:02;;;;;;;122.90;34.90;;;;;;;-10.88;41.05;100671.90;135892;1276;22551;-60
2024/01/10 01:12:04;;;;;;;120.90;38.20;;;;;;;-10.89;40.62;100668.12;135929;1276;22547;-59
2024/01/10 01:15:07;;;;;;;117.10;35.80;;;;;;;-11.07;40.63;100668.14;135816;1276;26583;-59
2024/01/10 01:18:12;;;;;;;120.80;37.10;;;;;;;-11.21;40.59;100666.73;135900;1276;22570;-60
2024/01/10 01:21:15;;;;;;;123.10;35.00;;;;;;;-11.30;40.63;100663.85;135836;1276;22527;-60
2024/01/10 01:24:18;;;;;;;131.10;38.70;;;;;;;-11.23;40.81;100664.92;135896;1273;22554;-58
2024/01/10 01:27:20;;;;;;;108.00;35.40;;;;;;;-11.23;40.71;100662.20;135894;1276;22642;-60
2024/01/10 01:30:23;;;;;;;121.90;39.60;;;;;;;-11.23;40.90;100655.96;135857;1275;22543;-59
2024/01/10 01:33:26;;;;;;;132.80;37.70;;;;;;;-11.19;40.66;100656.17;135873;1257;24208;-59
2024/01/10 01:36:29;;;;;;;124.40;36.50;;;;;;;-11.32;41.21;100657.35;135879;1276;22545;-59
2024/01/10 01:39:31;;;;;;;127.60;36.60;;;;;;;-11.42;40.96;100656.41;135909;1276;22626;-59
2024/01/10 01:42:34;;;;;;;119.10;36.40;;;;;;;-11.26;40.94;100646.83;135910;1276;22540;-59
2024/01/10 01:45:37;;;;;;;139.30;37.30;;;;;;;-11.12;41.10;100650.12;135851;1276;25261;-58
2024/01/10 01:48:40;;;;;;;119.20;38.80;;;;;;;-11.30;40.84;100651.36;135910;1276;22569;-59
2024/01/10 01:51:42;;;;;;;130.50;40.10;;;;;;;-11.30;41.06;100650.02;135894;1275;22646;-58
2024/01/10 01:54:45;;;;;;;149.40;41.20;;;;;;;-11.26;40.77;100647.66;135867;1276;22533;-59
2024/01/10 01:57:47;;;;;;;137.40;40.00;;;;;;;-11.43;40.59;100650.48;135917;1276;22575;-60
2024/01/10 02:00:50;;;;;;;129.50;37.90;;;;;;;-11.59;41.06;100650.90;135874;1276;25261;-60
2024/01/10 02:03:53;;;;;;;128.60;39.20;;;;;;;-11.67;41.23;100651.14;135845;1276;25341;-59
2024/01/10 02:06:56;;;;;;;121.60;36.10;;;;;;;-11.66;41.26;100651.33;135907;1276;22568;-59
2024/01/10 02:09:58;;;;;;;125.00;36.30;;;;;;;-11.64;41.37;100656.67;135882;1276;22535;-58
2024/01/10 02:13:01;;;;;;;120.00;37.40;;;;;;;-11.58;40.98;100651.80;135912;1275;22605;-59
2024/01/10 02:16:04;;;;;;;134.20;37.50;;;;;;;-11.59;41.01;100652.44;135853;1276;25316;-59
2024/01/10 02:19:07;;;;;;;114.90;36.60;;;;;;;-11.53;41.06;100655.11;135883;1276;22531;-59
2024/01/10 02:22:10;;;;;;;122.70;36.60;;;;;;;-11.38;40.73;100649.20;135864;1275;25301;-59
2024/01/10 02:25:13;;;;;;;128.10;36.80;;;;;;;-11.51;41.13;100657.23;135877;1275;22553;-59
2024/01/10 02:28:16;;;;;;;134.20;36.90;;;;;;;-11.70;41.06;100657.52;135895;1276;25331;-59
2024/01/10 02:31:19;;;;;;;132.40;38.80;;;;;;;-11.73;40.67;100660.86;135913;1276;25344;-58
2024/01/10 02:34:21;;;;;;;122.00;38.50;;;;;;;-11.70;41.27;100655.36;135904;1276;22533;-59
2024/01/10 02:37:24;;;;;;;132.80;40.50;;;;;;;-11.47;40.97;100651.90;135880;1276;22533;-59
2024/01/10 02:40:27;;;;;;;143.20;41.00;;;;;;;-11.29;40.94;100653.96;135895;1276;22558;-59
2024/01/10 02:43:29;;;;;;;140.90;40.10;;;;;;;-11.20;40.81;100660.71;135860;1276;22546;-59
2024/01/10 02:46:32;;;;;;;138.60;40.50;;;;;;;-11.12;40.68;100662.62;135933;1276;22642;-59
2024/01/10 02:49:35;;;;;;;146.30;42.00;;;;;;;-10.97;40.77;100656.02;135871;1276;25344;-59
2024/01/10 02:52:38;;;;;;;150.70;42.10;;;;;;;-10.88;40.77;100652.97;135879;1276;22558;-59
2024/01/10 02:55:41;;;;;;;165.00;43.90;;;;;;;-10.79;40.18;100650.90;135855;1275;22544;-59
2024/01/10 02:58:44;;;;;;;149.70;43.60;;;;;;;-10.78;40.51;100647.75;135898;1276;22564;-58
2024/01/10 03:01:46;;;;;;;160.50;45.40;;;;;;;-10.79;40.18;100642.61;135873;1276;25291;-58
2024/01/10 03:04:49;;;;;;;240.30;61.40;;;;;;;-10.76;40.45;100646.35;135911;1276;22520;-59
2024/01/10 03:07:52;;;;;;;235.70;58.10;;;;;;;-10.93;40.09;100644.95;135870;1261;22545;-60
2024/01/10 03:10:55;;;;;;;185.30;49.90;;;;;;;-11.13;40.58;100649.59;135885;1276;25269;-58
2024/01/10 03:13:57;;;;;;;159.00;41.70;;;;;;;-11.15;40.57;100643.38;135862;1259;22537;-58
2024/01/10 03:17:00;;;;;;;140.90;43.40;;;;;;;-11.13;40.38;100634.35;135931;1276;22543;-58
2024/01/10 03:20:03;;;;;;;157.10;44.50;;;;;;;-11.22;40.52;100626.13;135835;1275;23229;-60
2024/01/10 03:23:06;;;;;;;167.70;45.90;;;;;;;-11.12;40.91;100623.13;135929;1276;22643;-60
2024/01/10 03:26:08;;;;;;;174.90;49.60;;;;;;;-11.19;40.62;100619.86;135922;1275;22553;-59
2024/01/10 03:29:11;;;;;;;142.80;41.60;;;;;;;-11.10;40.94;100623.90;135885;1275;22553;-60
2024/01/10 03:32:14;;;;;;;133.10;38.80;;;;;;;-11.32;40.32;100626.08;135882;1276;22533;-59
2024/01/10 03:35:16;;;;;;;130.30;38.60;;;;;;;-11.66;40.74;100632.45;135880;1276;22566;-60
2024/01/10 03:38:19;;;;;;;137.60;39.20;;;;;;;-11.85;40.76;100632.17;135889;1276;22534;-59
2024/01/10 03:41:22;;;;;;;137.80;38.10;;;;;;;-11.93;41.07;100630.57;135865;1276;22534;-60
2024/01/10 03:44:25;;;;;;;142.30;41.60;;;;;;;-11.92;41.07;100634.52;135902;1276;22545;-59
2024/01/10 03:47:27;;;;;;;132.60;37.90;;;;;;;-11.93;41.31;100633.62;135880;1276;22560;-60
2024/01/10 03:50:30;;;;;;;136.00;38.50;;;;;;;-11.83;41.27;100629.13;135887;1276;22539;-59
2024/01/10 03:53:33;;;;;;;129.20;36.80;;;;;;;-11.82;41.06;100638.46;135860;1276;22548;-58
2024/01/10 03:56:35;;;;;;;125.80;38.80;;;;;;;-11.86;41.02;100637.52;135880;1276;22540;-60
2024/01/10 03:59:38;;;;;;;143.60;40.50;;;;;;;-11.86;41.18;100631.17;135875;1276;22667;-59
2024/01/10 04:02:41;;;;;;;128.80;37.20;;;;;;;-11.83;41.26;100628.62;135895;1276;25300;-60
2024/01/10 04:05:44;;;;;;;137.20;41.10;;;;;;;-11.54;41.47;100623.98;135847;1260;24263;-60
2024/01/10 04:08:46;;;;;;;140.00;37.80;;;;;;;-11.22;41.00;100618.00;135928;1276;22566;-59
2024/01/10 04:11:49;;;;;;;133.20;37.90;;;;;;;-11.29;40.96;100620.16;135885;1276;22642;-59
2024/01/10 04:14:52;;;;;;;128.70;38.30;;;;;;;-11.21;40.93;100612.45;135804;1276;25379;-60
2024/01/10 04:17:54;;;;;;;135.00;38.70;;;;;;;-11.12;40.41;100615.30;135897;1276;22562;-60
2024/01/10 04:20:57;;;;;;;124.20;36.60;;;;;;;-11.42;40.44;100614.55;135866;1276;22642;-60
2024/01/10 04:24:00;;;;;;;167.30;51.30;;;;;;;-11.70;40.46;100617.54;135933;1276;22550;-59
2024/01/10 04:27:03;;;;;;;136.70;38.30;;;;;;;-12.12;41.08;100616.15;135908;1276;25497;-59
2024/01/10 04:30:05;;;;;;;150.50;42.60;;;;;;;-12.30;41.51;100620.52;135906;1276;24215;-58
2024/01/10 04:33:08;;;;;;;153.90;38.80;;;;;;;-12.35;41.47;100614.48;135835;1276;22665;-58
2024/01/10 04:36:11;;;;;;;147.20;43.50;;;;;;;-12.42;41.77;100611.06;135840;1276;25297;-60
2024/01/10 04:39:14;;;;;;;151.40;41.90;;;;;;;-12.35;41.63;100604.04;135901;1276;22564;-59
2024/01/10 04:42:16;;;;;;;150.40;43.80;;;;;;;-12.38;41.35;100609.93;135879;1276;22540;-59
2024/01/10 04:45:19;;;;;;;137.50;40.60;;;;;;;-12.50;42.04;100613.56;135860;1276;22526;-60
2024/01/10 04:48:22;;;;;;;157.80;45.00;;;;;;;-12.54;41.83;100614.17;135898;1267;22639;-59
2024/01/10 04:51:25;;;;;;;141.80;43.40;;;;;;;-12.42;41.97;100606.61;135910;1276;22537;-59
2024/01/10 04:54:28;;;;;;;138.50;41.50;;;;;;;-12.11;41.66;100612.49;135908;1276;22524;-60
2024/01/10 04:57:30;;;;;;;130.80;39.30;;;;;;;-12.10;41.26;100612.42;135868;1276;22776;-58
2024/01/10 05:00:33;;;;;;;158.20;44.90;;;;;;;-12.10;41.54;100616.64;135901;1276;22558;-60
2024/01/10 05:03:36;;;;;;;141.80;39.00;;;;;;;-12.09;41.37;100618.36;135883;1276;22548;-60
2024/01/10 05:06:38;;;;;;;129.30;37.40;;;;;;;-11.96;41.59;100615.21;135896;1276;25300;-59
2024/01/10 05:09:41;;;;;;;129.90;37.70;;;;;;;-11.70;41.34;100612.95;135911;1276;22561;-57
2024/01/10 05:12:44;;;;;;;142.30;41.30;;;;;;;-11.66;40.71;100621.14;135889;1276;22530;-59
2024/01/10 05:15:46;;;;;;;147.10;42.20;;;;;;;-11.87;41.06;100620.77;135884;1275;22606;-60
2024/01/10 05:18:49;;;;;;;145.00;43.20;;;;;;;-11.84;41.06;100615.41;135917;1276;25376;-59
2024/01/10 05:21:52;;;;;;;152.40;42.30;;;;;;;-11.72;41.59;100619.10;135887;1276;22551;-59
2024/01/10 05:24:55;;;;;;;144.40;40.30;;;;;;;-11.49;41.26;100618.52;135898;1276;22534;-61
2024/01/10 05:27:58;;;;;;;138.80;41.30;;;;;;;-11.52;40.86;100611.92;135861;1276;24318;-58
2024/01/10 05:31:01;;;;;;;164.60;46.60;;;;;;;-11.65;41.09;100612.77;135891;1275;22579;-59
2024/01/10 05:34:04;;;;;;;173.00;49.90;;;;;;;-11.70;41.25;100615.98;135914;1276;24694;-59
2024/01/10 05:37:07;;;;;;;150.50;41.30;;;;;;;-11.69;41.25;100612.02;135920;1276;22533;-59
2024/01/10 05:40:10;;;;;;;146.30;42.10;;;;;;;-11.54;41.32;100600.02;135887;1275;22538;-58
2024/01/10 05:43:12;;;;;;;150.60;41.50;;;;;;;-11.38;41.02;100591.77;135908;1276;22490;-58
2024/01/10 05:46:16;;;;;;;139.00;40.30;;;;;;;-11.43;40.96;100595.19;135892;1276;22781;-58
2024/01/10 05:49:18;;;;;;;139.60;38.50;;;;;;;-11.44;41.36;100591.95;135909;1276;22668;-58
2024/01/10 05:52:22;;;;;;;136.00;38.70;;;;;;;-11.58;41.18;100590.54;135859;1276;22552;-59
2024/01/10 05:55:24;;;;;;;153.10;40.90;;;;;;;-11.70;41.15;100591.84;135845;1276;24377;-59
2024/01/10 05:58:27;;;;;;;162.00;42.30;;;;;;;-11.66;41.57;100592.75;135857;1275;22646;-59
2024/01/10 06:01:30;;;;;;;162.00;47.00;;;;;;;-11.54;41.50;100587.52;135851;1276;24226;-59
2024/01/10 06:04:32;;;;;;;165.80;46.10;;;;;;;-11.36;41.88;100579.05;135925;1275;22558;-59
2024/01/10 06:07:35;;;;;;;150.50;44.20;;;;;;;-11.18;41.35;100575.47;135862;1276;22549;-59
2024/01/10 06:10:38;;;;;;;165.10;46.10;;;;;;;-11.32;41.05;100576.73;135927;1276;25222;-58
2024/01/10 06:13:40;;;;;;;156.80;47.10;;;;;;;-11.51;41.01;100578.09;135907;1275;24215;-59
2024/01/10 06:16:43;;;;;;;201.00;56.80;;;;;;;-11.64;41.34;100587.45;135897;1276;22540;-58
2024/01/10 06:19:46;;;;;;;178.80;55.00;;;;;;;-11.62;41.85;100581.52;135954;1276;22541;-60
2024/01/10 06:22:49;;;;;;;200.80;58.60;;;;;;;-11.42;41.41;100579.91;135722;1276;257688;-59
2024/01/10 06:25:54;;;;;;;202.90;56.40;;;;;;;-11.37;41.00;100578.99;135893;1276;22533;-59
2024/01/10 06:28:57;;;;;;;178.50;52.20;;;;;;;-11.57;41.54;100587.84;135919;1276;22579;-60
2024/01/10 06:32:01;;;;;;;155.80;48.40;;;;;;;-11.85;41.54;100589.65;135922;1276;25635;-58
2024/01/10 06:35:04;;;;;;;161.50;48.40;;;;;;;-12.16;41.72;100598.37;135955;1276;22530;-60
2024/01/10 06:38:07;;;;;;;176.70;51.10;;;;;;;-12.34;41.97;100592.27;135901;1276;22540;-58
2024/01/10 06:41:10;;;;;;;177.70;51.00;;;;;;;-12.37;42.12;100588.39;135911;1276;22644;-59
2024/01/10 06:44:12;;;;;;;155.50;46.00;;;;;;;-12.19;41.98;100590.80;135886;1276;22542;-58
2024/01/10 06:47:15;;;;;;;157.20;50.40;;;;;;;-11.86;42.09;100588.10;135886;1276;22642;-59
2024/01/10 06:50:20;;;;;;;152.90;42.90;;;;;;;-11.57;41.53;100581.80;135881;1276;26658;-60
2024/01/10 06:53:23;;;;;;;483.40;133.70;;;;;;;-11.58;41.64;100587.98;135843;1276;22642;-60
2024/01/10 06:56:25;;;;;;;446.50;131.20;;;;;;;-11.51;41.63;100582.64;135911;1276;22541;-59
2024/01/10 06:59:28;;;;;;;227.80;65.10;;;;;;;-11.34;41.72;100582.57;135856;1276;22588;-59
2024/01/10 07:02:32;;;;;;;199.40;56.30;;;;;;;-11.25;41.14;100583.22;135898;1276;22537;-60
2024/01/10 07:05:35;;;;;;;208.10;57.70;;;;;;;-11.20;41.19;100577.54;135905;1276;22536;-59
2024/01/10 07:08:38;;;;;;;200.10;53.50;;;;;;;-11.10;40.99;100578.25;135899;1275;22550;-59
2024/01/10 07:11:40;;;;;;;190.20;53.80;;;;;;;-11.04;41.02;100568.98;135912;1276;24234;-60
2024/01/10 07:14:43;;;;;;;185.30;54.10;;;;;;;-10.93;41.12;100568.03;135922;1275;22534;-59
2024/01/10 07:17:46;;;;;;;191.40;55.20;;;;;;;-10.87;41.06;100568.88;135948;1276;22544;-58
2024/01/10 07:20:49;;;;;;;226.20;65.80;;;;;;;-10.67;41.40;100571.60;135882;1276;25265;-58
2024/01/10 07:23:52;;;;;;;181.10;51.70;;;;;;;-10.81;40.94;100577.08;135893;1276;22523;-58
2024/01/10 07:26:56;;;;;;;176.80;51.50;;;;;;;-10.89;41.24;100577.36;135924;1276;24265;-60
2024/01/10 07:29:59;;;;;;;165.00;48.60;;;;;;;-10.93;41.39;100578.52;135934;1276;24302;-59
2024/01/10 07:33:02;;;;;;;180.70;52.40;;;;;;;-10.69;41.68;100579.41;135912;1276;22533;-57
2024/01/10 07:36:05;;;;;;;217.70;66.30;;;;;;;-10.47;41.15;100572.61;135917;1275;25334;-59
2024/01/10 07:39:07;;;;;;;194.60;60.10;;;;;;;-10.30;41.52;100569.55;135938;1276;22556;-59
2024/01/10 07:42:10;;;;;;;199.40;61.80;;;;;;;-9.97;41.42;100570.53;135926;1262;22541;-59
2024/01/10 07:45:13;;;;;;;203.80;65.30;;;;;;;-9.76;40.87;100564.79;135870;1276;25360;-58
2024/01/10 07:48:16;;;;;;;200.80;62.00;;;;;;;-9.77;41.16;100565.76;135955;1276;22541;-59
2024/01/10 07:51:19;;;;;;;208.40;61.20;;;;;;;-9.67;41.15;100560.11;135909;1276;22557;-59
2024/01/10 07:54:22;;;;;;;205.10;62.40;;;;;;;-9.46;41.39;100555.35;135971;1276;22523;-60
2024/01/10 07:57:25;;;;;;;200.60;65.10;;;;;;;-9.15;41.71;100557.48;135949;1275;22530;-59
2024/01/10 08:00:29;;;;;;;204.70;65.50;;;;;;;-8.55;41.29;100559.45;135952;1276;22534;-60
2024/01/10 08:03:33;;;;;;;206.90;69.80;;;;;;;-8.26;40.99;100559.64;135901;1275;22537;-58
2024/01/10 08:06:36;;;;;;;190.40;63.80;;;;;;;-7.87;40.78;100558.73;135862;1276;23132;-59
2024/01/10 08:09:39;;;;;;;203.50;69.60;;;;;;;-7.52;40.27;100556.05;135891;1276;24237;-60
2024/01/10 08:12:42;;;;;;;218.40;74.20;;;;;;;-7.51;40.02;100557.98;135904;1275;22601;-59
2024/01/10 08:15:45;;;;;;;213.90;75.80;;;;;;;-7.52;40.24;100559.30;135904;1276;22533;-59
2024/01/10 08:18:48;;;;;;;218.70;80.40;;;;;;;-7.54;40.39;100564.14;135910;1276;22638;-58
2024/01/10 08:21:50;;;;;;;224.00;82.90;;;;;;;-7.57;41.00;100564.02;135916;1276;22534;-58
2024/01/10 08:24:53;;;;;;;229.10;80.00;;;;;;;-7.16;40.83;100564.23;135946;1276;22564;-58
2024/01/10 08:27:57;;;;;;;238.60;86.40;;;;;;;-6.81;40.74;100568.95;135966;1276;22560;-59
2024/01/10 08:31:00;;;;;;;228.60;80.50;;;;;;;-6.62;40.53;100569.98;135950;1276;22555;-59
2024/01/10 08:34:02;;;;;;;243.10;89.70;;;;;;;-6.52;40.74;100570.53;135944;1275;25574;-59
2024/01/10 08:37:05;;;;;;;236.40;87.80;;;;;;;-6.28;40.81;100573.75;135922;1276;22559;-59
2024/01/10 08:40:11;;;;;;;352.30;130.80;;;;;;;-5.98;41.09;100572.89;135899;1276;22544;-60
2024/01/10 08:43:14;;;;;;;388.30;142.20;;;;;;;-5.74;40.77;100570.11;135857;1276;25535;-58
2024/01/10 08:46:17;;;;;;;442.80;165.60;;;;;;;-5.36;40.98;100565.84;135944;1275;22533;-60
2024/01/10 08:49:20;;;;;;;402.60;145.50;;;;;;;-4.86;41.04;100565.82;135977;1276;22529;-60
2024/01/10 08:52:23;;;;;;;402.50;153.30;;;;;;;-4.43;40.94;100570.64;135949;1276;25394;-59
2024/01/10 08:55:25;;;;;;;344.60;130.10;;;;;;;-3.86;41.01;100572.12;135913;1275;22563;-60
2024/01/10 08:58:28;;;;;;;315.20;114.80;;;;;;;-3.48;40.49;100569.30;135948;1276;22537;-59
2024/01/10 09:01:31;;;;;;;389.90;146.40;;;;;;;-3.12;40.47;100571.67;135912;1276;26522;-60
2024/01/10 09:04:33;;;;;;;413.30;158.80;;;;;;;-2.72;40.49;100571.00;135979;1276;22593;-59
2024/01/10 09:07:36;;;;;;;384.90;145.30;;;;;;;-2.58;40.54;100566.13;135938;1276;24274;-59
2024/01/10 09:10:40;;;;;;;394.70;148.50;;;;;;;-2.45;40.11;100564.52;135935;1276;22656;-59
2024/01/10 09:13:42;;;;;;;432.80;174.70;;;;;;;-2.51;39.79;100559.78;135932;1276;22537;-59
2024/01/10 09:16:45;;;;;;;435.20;172.00;;;;;;;-2.60;40.03;100563.19;135938;1276;22533;-60
2024/01/10 09:19:48;;;;;;;458.80;188.00;;;;;;;-2.61;39.76;100563.70;135975;1266;22530;-60
2024/01/10 09:22:50;;;;;;;434.10;172.90;;;;;;;-2.16;39.81;100555.63;135920;1276;22551;-60
2024/01/10 09:25:53;;;;;;;398.50;163.40;;;;;;;-1.85;39.57;100545.73;135966;1276;22529;-59
2024/01/10 09:28:56;;;;;;;410.90;168.20;;;;;;;-1.83;39.61;100543.87;136003;1276;25294;-60
2024/01/10 09:31:58;;;;;;;412.70;162.60;;;;;;;-1.68;39.69;100543.61;135963;1276;22560;-60
2024/01/10 09:35:01;;;;;;;398.60;156.70;;;;;;;-1.44;39.56;100542.11;135990;1276;22656;-60
2024/01/10 09:38:04;;;;;;;382.30;155.50;;;;;;;-1.22;39.65;100538.82;135935;1253;25334;-59
2024/01/10 09:41:07;;;;;;;380.20;153.70;;;;;;;-1.11;39.55;100533.98;135923;1276;22545;-60
2024/01/10 09:44:09;;;;;;;391.40;158.20;;;;;;;-0.91;39.30;100532.55;135985;1276;22659;-58
2024/01/10 09:47:12;;;;;;;409.30;169.70;;;;;;;-0.65;39.14;100525.13;135891;1275;22566;-60
2024/01/10 09:50:15;;;;;;;393.00;160.40;;;;;;;-0.53;39.45;100525.97;135963;1276;22539;-59
2024/01/10 09:53:18;;;;;;;342.00;138.50;;;;;;;-0.27;39.18;100528.65;135963;1276;22540;-60
2024/01/10 09:56:21;;;;;;;344.30;133.30;;;;;;;-0.23;39.32;100523.88;135995;1276;23921;-60
2024/01/10 09:59:23;;;;;;;335.60;127.30;;;;;;;-0.12;38.88;100515.56;135979;1276;22592;-61
2024/01/10 10:02:26;;;;;;;303.70;119.50;;;;;;;-0.17;38.70;100508.30;135898;1275;22544;-60
2024/01/10 10:05:29;;;;;;;310.20;118.30;;;;;;;-0.26;38.50;100506.13;136012;1275;26512;-60
2024/01/10 10:08:31;;;;;;;320.10;126.50;;;;;;;-0.24;38.83;100515.96;135996;1276;22563;-60
2024/01/10 10:11:34;;;;;;;259.00;99.10;;;;;;;0.10;38.86;100521.79;135946;1276;22536;-60
2024/01/10 10:14:37;;;;;;;292.30;115.70;;;;;;;0.02;38.53;100520.86;135968;1275;22562;-60
2024/01/10 10:17:45;;;;;;;292.60;113.80;;;;;;;0.15;38.79;100524.40;135956;1256;22537;-60
2024/01/10 10:20:48;;;;;;;271.70;105.40;;;;;;;0.28;38.53;100528.83;136000;1276;22596;-60
2024/01/10 10:23:51;;;;;;;248.70;98.90;;;;;;;0.47;38.77;100523.98;136001;1275;22538;-61
2024/01/10 10:26:55;;;;;;;210.80;83.30;;;;;;;0.86;38.58;100524.75;135966;1276;22540;-61
2024/01/10 10:29:57;;;;;;;190.80;75.80;;;;;;;1.24;38.21;100522.00;135989;1276;24387;-60
2024/01/10 10:33:00;;;;;;;163.40;65.40;;;;;;;1.59;37.96;100523.52;135969;1275;22549;-60
2024/01/10 10:36:03;;;;;;;168.10;65.50;;;;;;;1.88;37.79;100519.79;135934;1276;25500;-60
2024/01/10 10:39:13;;;;;;;147.80;61.70;;;;;;;2.07;37.89;100515.50;135965;1276;22533;-61
2024/01/10 10:42:16;;;;;;;152.30;60.90;;;;;;;2.30;37.62;100516.02;135946;1276;22544;-60
2024/01/10 10:45:19;;;;;;;152.20;61.00;;;;;;;2.59;37.29;100503.40;135977;1275;22540;-61
2024/01/10 10:48:21;;;;;;;145.10;58.20;;;;;;;2.80;37.03;100501.10;135970;1257;22757;-60
2024/01/10 10:51:24;;;;;;;149.50;60.50;;;;;;;2.61;37.85;100499.93;135963;1276;22529;-60
2024/01/10 10:54:27;;;;;;;136.00;57.80;;;;;;;2.82;37.70;100497.83;135947;1275;22556;-60
2024/01/10 10:57:29;;;;;;;127.50;53.10;;;;;;;3.14;37.83;100495.30;135915;1276;22587;-60
2024/01/10 11:00:32;;;;;;;123.20;51.30;;;;;;;3.40;37.65;100490.67;136011;1276;22575;-60
2024/01/10 11:03:35;;;;;;;125.50;54.50;;;;;;;3.52;36.91;100481.46;135998;1276;26022;-61
2024/01/10 11:06:37;;;;;;;133.40;55.50;;;;;;;3.48;36.50;100478.20;135964;1276;22564;-60
2024/01/10 11:09:40;;;;;;;125.80;52.40;;;;;;;3.35;36.23;100470.14;135996;1276;22540;-60
2024/01/10 11:12:43;;;;;;;122.20;50.40;;;;;;;3.18;36.12;100471.08;136005;1276;22556;-60
2024/01/10 11:15:45;;;;;;;;;;;;;;;2.89;35.95;100471.88;135994;1275;22522;-59
2024/01/10 11:18:48;;;;;;;117.90;47.90;;;;;;;2.73;36.12;100471.23;135966;1275;22533;-62
2024/01/10 11:21:51;;;;;;;122.20;49.40;;;;;;;2.71;36.61;100468.13;135984;1276;22666;-61
2024/01/10 11:24:54;;;;;;;118.50;46.30;;;;;;;2.73;36.33;100463.80;136017;1275;25270;-60
2024/01/10 11:27:56;;;;;;;105.60;43.00;;;;;;;2.63;35.98;100464.18;135964;1276;22549;-60
2024/01/10 11:30:59;;;;;;;105.30;41.60;;;;;;;2.60;36.06;100459.52;136010;1275;22554;-60
2024/01/10 11:34:02;;;;;;;;;;;;;;;2.63;35.83;100462.79;136002;1276;22528;-60
2024/01/10 11:37:04;;;;;;;;;;;;;;;2.63;35.54;100463.14;136000;1276;22530;-60
2024/01/10 11:40:07;;;;;;;92.40;36.70;;;;;;;2.66;35.68;100455.02;135980;1276;25313;-60
2024/01/10 11:43:11;;;;;;;114.10;44.70;;;;;;;2.75;35.96;100453.44;135968;1257;24254;-60
2024/01/10 11:46:15;;;;;;;;;;;;;;;2.96;35.74;100446.98;136033;1276;22511;-59
2024/01/10 11:49:18;;;;;;;104.50;40.50;;;;;;;3.19;35.80;100438.23;136040;1275;22625;-60
2024/01/10 11:52:20;;;;;;;108.10;44.80;;;;;;;3.52;35.48;100437.01;136010;1256;22540;-60
2024/01/10 11:55:23;;;;;;;;;;;;;;;3.69;35.39;100437.59;136021;1276;22521;-59
2024/01/10 11:58:26;;;;;;;115.90;47.80;;;;;;;3.57;34.52;100434.54;135986;1276;22547;-60
2024/01/10 12:01:29;;;;;;;128.30;52.10;;;;;;;3.40;34.93;100433.79;136030;1276;22539;-61
2024/01/10 12:04:31;;;;;;;;;;;;;;;3.46;35.06;100430.13;136005;1275;26559;-60
2024/01/10 12:07:34;;;;;;;124.90;50.50;;;;;;;3.45;35.02;100420.62;136038;1275;22537;-60
2024/01/10 12:10:37;;;;;;;136.20;55.50;;;;;;;3.69;35.78;100411.46;136010;1276;22536;-60
2024/01/10 12:13:40;;;;;;;129.60;54.30;;;;;;;4.14;36.09;100405.73;135999;1276;22662;-60
2024/01/10 12:16:43;;;;;;;;;;;;;;;4.53;36.05;100400.98;136000;1275;22510;-61
2024/01/10 12:19:47;;;;;;;142.60;60.10;;;;;;;4.71;35.74;100395.42;136016;1276;22541;-60
2024/01/10 12:22:50;;;;;;;158.80;65.70;;;;;;;4.81;34.99;100392.00;135977;1257;22537;-60
2024/01/10 12:25:53;;;;;;;;;;;;;;;4.76;34.92;100390.50;136040;1276;22555;-61
2024/01/10 12:28:55;;;;;;;164.60;70.10;;;;;;;4.48;35.08;100393.78;135969;1276;22541;-61
2024/01/10 12:31:58;;;;;;;180.70;75.80;;;;;;;4.22;35.26;100389.55;135953;1275;22543;-60
2024/01/10 12:35:01;;;;;;;173.60;76.30;;;;;;;4.15;35.43;100385.27;135995;1275;25246;-62
2024/01/10 12:38:06;;;;;;;157.50;67.10;;;;;;;4.30;35.53;100381.31;135961;1276;22711;-59
2024/01/10 12:41:10;;;;;;;158.70;66.60;;;;;;;4.35;35.33;100381.97;135910;1275;22606;-61
2024/01/10 12:44:12;;;;;;;;;;;;;;;4.16;35.14;100388.05;136003;1276;22508;-60
2024/01/10 12:47:15;;;;;;;163.10;68.40;;;;;;;4.10;35.35;100387.77;136022;1275;22575;-61
2024/01/10 12:50:18;;;;;;;169.10;72.30;;;;;;;4.19;35.30;100386.81;136011;1257;22550;-61
2024/01/10 12:53:20;;;;;;;;;;;;;;;4.09;34.89;100384.13;135983;1275;22637;-61
2024/01/10 12:56:23;;;;;;;173.10;70.40;;;;;;;3.98;35.01;100384.58;135994;1275;24835;-61
2024/01/10 12:59:26;;;;;;;163.10;69.80;;;;;;;4.02;35.06;100385.74;135997;1276;22649;-61
2024/01/10 13:02:29;;;;;;;;;;;;;;;3.89;34.94;100382.23;136055;1275;22526;-60
2024/01/10 13:05:31;;;;;;;153.50;61.40;;;;;;;3.68;35.10;100383.09;135979;1276;22540;-60
2024/01/10 13:08:34;;;;;;;142.80;58.50;;;;;;;3.66;34.97;100381.73;135992;1275;24717;-60
2024/01/10 13:11:37;;;;;;;147.60;61.30;;;;;;;3.54;34.68;100375.41;135965;1275;22537;-61
2024/01/10 13:14:39;;;;;;;136.70;56.30;;;;;;;3.45;34.88;100368.05;136011;1276;22642;-61
2024/01/10 13:17:42;;;;;;;143.80;59.80;;;;;;;3.46;35.07;100368.21;136033;1276;25347;-61
2024/01/10 13:20:45;;;;;;;;;;;;;;;3.60;35.79;100362.91;136045;1275;22514;-60
2024/01/10 13:23:47;;;;;;;117.00;46.70;;;;;;;3.96;35.80;100362.79;135969;1275;22645;-61
2024/01/10 13:26:50;;;;;;;114.00;45.60;;;;;;;4.14;35.25;100361.56;136025;1276;22544;-61
2024/01/10 13:29:53;;;;;;;115.40;47.90;;;;;;;4.20;35.50;100363.07;135992;1275;25275;-61
2024/01/10 13:32:56;;;;;;;125.00;45.70;;;;;;;4.10;35.16;100362.83;136006;1275;22551;-62